createdAt,value
2019-01-19T00:00:05.030Z,101022.95
2019-01-19T00:01:33.903Z,101025.69
2019-01-19T00:03:02.762Z,101024.36
2019-01-19T00:04:31.888Z,101019.44
2019-01-19T00:05:50.303Z,101019.98
2019-01-19T00:07:02.724Z,101009.88
2019-01-19T00:08:17.760Z,101009.07
2019-01-19T00:09:39.243Z,101013.44
2019-01-19T00:10:48.649Z,101004.41
2019-01-19T00:12:06.522Z,101006.08
2019-01-19T00:13:18.969Z,101004.70
2019-01-19T00:14:23.865Z,101010.45
2019-01-19T00:15:30.455Z,101001.16
2019-01-19T00:16:56.302Z,101003.90
2019-01-19T00:18:08.388Z,100998.42
2019-01-19T00:19:29.947Z,100998.16
2019-01-19T00:20:51.636Z,100996.80
2019-01-19T00:22:03.723Z,100997.65
2019-01-19T00:23:13.189Z,101000.38
2019-01-19T00:24:22.306Z,101000.94
2019-01-19T00:25:31.810Z,101009.16
2019-01-19T00:26:44.182Z,100999.87
2019-01-19T00:27:53.607Z,100998.50
2019-01-19T00:29:14.390Z,100999.61
2019-01-19T00:30:26.689Z,100996.87
2019-01-19T00:31:33.223Z,101000.72
2019-01-19T00:32:48.442Z,100992.25
2019-01-19T00:34:00.666Z,100996.36
2019-01-19T00:35:18.932Z,100997.47
2019-01-19T00:36:25.532Z,100993.10
2019-01-19T00:37:32.105Z,100996.39
2019-01-19T00:39:01.080Z,100987.92
2019-01-19T00:40:22.448Z,100985.19
2019-01-19T00:42:01.860Z,100993.40
2019-01-19T00:43:06.659Z,100986.23
2019-01-19T00:44:13.224Z,100991.45
2019-01-19T00:45:31.351Z,100989.27
2019-01-19T00:46:40.589Z,100987.34
2019-01-19T00:47:50.710Z,100984.09
2019-01-19T00:48:57.343Z,100989.56
2019-01-19T00:50:03.889Z,100987.38
2019-01-19T00:51:19.402Z,100985.75
2019-01-19T00:52:25.966Z,100981.39
2019-01-19T00:53:38.228Z,100975.66
2019-01-19T00:54:44.770Z,100982.23
2019-01-19T00:55:54.225Z,100985.23
2019-01-19T00:57:06.615Z,100982.50
2019-01-19T00:58:15.777Z,100986.61
2019-01-19T00:59:22.753Z,100981.12
2019-01-19T01:00:37.922Z,100987.72
2019-01-19T01:02:08.151Z,100981.17
2019-01-19T01:03:20.667Z,100995.67
2019-01-19T01:04:42.092Z,100984.20
2019-01-19T01:05:54.412Z,100990.49
2019-01-19T01:07:17.521Z,100989.98
2019-01-19T01:08:24.115Z,100988.05
2019-01-19T01:10:04.120Z,100987.79
2019-01-19T01:11:13.449Z,100989.42
2019-01-19T01:12:36.158Z,100986.16
2019-01-19T01:13:57.293Z,100984.80
2019-01-19T01:15:18.803Z,100993.01
2019-01-19T01:16:42.993Z,100987.24
2019-01-19T01:17:49.431Z,100993.02
2019-01-19T01:19:13.710Z,100990.83
2019-01-19T01:20:39.376Z,100990.02
2019-01-19T01:21:51.754Z,100988.94
2019-01-19T01:22:58.304Z,100990.31
2019-01-19T01:24:05.206Z,100993.05
2019-01-19T01:25:32.501Z,100991.98
2019-01-19T01:26:56.950Z,100982.95
2019-01-19T01:28:26.961Z,100985.95
2019-01-19T01:29:39.016Z,100982.95
2019-01-19T01:30:48.021Z,100982.14
2019-01-19T01:31:57.160Z,100978.84
2019-01-19T01:33:12.352Z,100982.44
2019-01-19T01:34:21.782Z,100981.33
2019-01-19T01:35:47.215Z,100981.62
2019-01-19T01:36:56.484Z,100984.36
2019-01-19T01:38:28.437Z,100986.84
2019-01-19T01:39:40.478Z,100983.55
2019-01-19T01:40:55.812Z,100984.66
2019-01-19T01:42:08.234Z,100983.28
2019-01-19T01:43:20.401Z,100980.29
2019-01-19T01:44:43.231Z,100977.55
2019-01-19T01:46:04.894Z,100984.66
2019-01-19T01:47:17.311Z,100986.88
2019-01-19T01:48:23.864Z,100980.58
2019-01-19T01:49:30.399Z,100982.21
2019-01-19T01:50:36.920Z,100982.50
2019-01-19T01:52:04.278Z,100979.77
2019-01-19T01:53:22.474Z,100980.33
2019-01-19T01:54:34.726Z,100975.92
2019-01-19T01:55:38.888Z,100974.03
2019-01-19T01:56:42.364Z,100970.45
2019-01-19T01:57:48.782Z,100976.48
2019-01-19T01:59:01.111Z,100977.59
2019-01-19T02:00:26.859Z,100976.22
2019-01-19T02:02:07.027Z,100969.13
2019-01-19T02:03:16.127Z,100967.20
2019-01-19T02:04:22.677Z,100962.87
2019-01-19T02:05:55.406Z,100969.97
2019-01-19T02:07:01.948Z,100968.05
2019-01-19T02:08:29.552Z,100967.23
2019-01-19T02:09:36.089Z,100962.35
2019-01-19T02:10:42.696Z,100964.79
2019-01-19T02:12:08.495Z,100959.06
2019-01-19T02:13:15.028Z,100962.35
2019-01-19T02:14:27.346Z,100962.35
2019-01-19T02:15:39.883Z,100961.83
2019-01-19T02:17:07.182Z,100960.17
2019-01-19T02:18:18.628Z,100957.39
2019-01-19T02:19:33.846Z,100962.87
2019-01-19T02:20:58.404Z,100960.39
2019-01-19T02:22:22.778Z,100960.39
2019-01-19T02:23:47.056Z,100953.29
2019-01-19T02:25:25.118Z,100954.66
2019-01-19T02:26:34.603Z,100954.40
2019-01-19T02:27:43.841Z,100953.88
2019-01-19T02:28:56.154Z,100954.17
2019-01-19T02:30:17.445Z,100952.81
2019-01-19T02:31:35.688Z,100957.47
2019-01-19T02:32:44.797Z,100956.95
2019-01-19T02:34:15.480Z,100956.95
2019-01-19T02:35:33.800Z,100952.30
2019-01-19T02:36:55.266Z,100953.66
2019-01-19T02:38:01.825Z,100950.11
2019-01-19T02:39:35.366Z,100949.04
2019-01-19T02:40:59.921Z,100950.15
2019-01-19T02:42:21.279Z,100941.97
2019-01-19T02:43:42.892Z,100943.89
2019-01-19T02:45:01.108Z,100939.53
2019-01-19T02:46:34.333Z,100943.38
2019-01-19T02:47:43.682Z,100942.01
2019-01-19T02:49:06.643Z,100938.20
2019-01-19T02:50:22.350Z,100938.49
2019-01-19T02:51:43.553Z,100935.50
2019-01-19T02:53:13.927Z,100942.89
2019-01-19T02:54:26.315Z,100940.16
2019-01-19T02:55:47.935Z,100936.34
2019-01-19T02:57:11.701Z,100937.42
2019-01-19T02:58:29.821Z,100937.98
2019-01-19T02:59:42.004Z,100931.69
2019-01-19T03:01:15.058Z,100934.43
2019-01-19T03:02:39.368Z,100930.33
2019-01-19T03:03:51.671Z,100929.80
2019-01-19T03:05:04.027Z,100924.08
2019-01-19T03:06:10.592Z,100924.08
2019-01-19T03:07:28.777Z,100916.98
2019-01-19T03:08:50.215Z,100925.44
2019-01-19T03:10:14.224Z,100923.27
2019-01-19T03:11:38.687Z,100923.81
2019-01-19T03:13:04.755Z,100914.53
2019-01-19T03:14:16.907Z,100920.00
2019-01-19T03:15:29.282Z,100915.09
2019-01-19T03:16:47.462Z,100916.75
2019-01-19T03:17:59.731Z,100909.95
2019-01-19T03:19:18.247Z,100918.67
2019-01-19T03:20:36.776Z,100913.75
2019-01-19T03:21:46.160Z,100915.94
2019-01-19T03:22:55.506Z,100917.56
2019-01-19T03:24:24.250Z,100914.57
2019-01-19T03:25:47.077Z,100910.20
2019-01-19T03:26:56.266Z,100914.05
2019-01-19T03:28:05.315Z,100909.39
2019-01-19T03:29:20.797Z,100913.75
2019-01-19T03:30:44.997Z,100910.47
2019-01-19T03:31:51.529Z,100909.91
2019-01-19T03:33:06.886Z,100906.62
2019-01-19T03:34:19.274Z,100910.17
2019-01-19T03:35:34.061Z,100911.80
2019-01-19T03:36:58.710Z,100909.32
2019-01-19T03:38:23.062Z,100906.33
2019-01-19T03:39:44.464Z,100907.41
2019-01-19T03:41:07.680Z,100906.03
2019-01-19T03:42:42.723Z,100907.41
2019-01-19T03:44:10.362Z,100905.77
2019-01-19T03:45:17.175Z,100901.12
2019-01-19T03:46:35.701Z,100901.92
2019-01-19T03:47:47.496Z,100900.30
2019-01-19T03:49:19.296Z,100896.75
2019-01-19T03:50:37.332Z,100897.02
2019-01-19T03:51:55.697Z,100898.37
2019-01-19T03:53:15.301Z,100897.56
2019-01-19T03:54:47.351Z,100886.88
2019-01-19T03:55:59.736Z,100889.66
2019-01-19T03:57:20.810Z,100884.41
2019-01-19T03:58:45.296Z,100884.92
2019-01-19T03:59:57.460Z,100887.66
2019-01-19T04:01:21.749Z,100887.36
2019-01-19T04:02:59.666Z,100884.92
2019-01-19T04:04:14.948Z,100886.25
2019-01-19T04:05:35.706Z,100880.70
2019-01-19T04:06:58.673Z,100883.66
2019-01-19T04:08:10.987Z,100881.73
2019-01-19T04:09:33.969Z,100873.77
2019-01-19T04:10:40.649Z,100879.21
2019-01-19T04:11:59.288Z,100876.44
2019-01-19T04:13:11.277Z,100875.33
2019-01-19T04:14:20.479Z,100872.25
2019-01-19T04:15:30.030Z,100871.70
2019-01-19T04:16:39.270Z,100869.17
2019-01-19T04:18:00.182Z,100875.20
2019-01-19T04:19:12.618Z,100870.23
2019-01-19T04:20:36.943Z,100869.94
2019-01-19T04:21:46.261Z,100868.83
2019-01-19T04:22:50.014Z,100870.70
2019-01-19T04:23:56.664Z,100869.85
2019-01-19T04:25:03.225Z,100865.75
2019-01-19T04:26:07.460Z,100860.78
2019-01-19T04:27:11.084Z,100873.09
2019-01-19T04:28:15.527Z,100867.87
2019-01-19T04:29:19.099Z,100859.36
2019-01-19T04:30:22.660Z,100868.95
2019-01-19T04:31:26.294Z,100868.09
2019-01-19T04:32:29.887Z,100862.61
2019-01-19T04:33:33.544Z,100863.38
2019-01-19T04:34:37.186Z,100864.75
2019-01-19T04:35:40.763Z,100865.01
2019-01-19T04:36:44.665Z,100865.27
2019-01-19T04:37:48.330Z,100868.00
2019-01-19T04:38:52.051Z,100861.16
2019-01-19T04:39:55.607Z,100863.04
2019-01-19T04:40:59.173Z,100867.41
2019-01-19T04:42:03.034Z,100863.30
2019-01-19T04:43:06.625Z,100862.48
2019-01-19T04:44:10.164Z,100863.84
2019-01-19T04:45:13.981Z,100864.36
2019-01-19T04:46:17.828Z,100853.16
2019-01-19T04:47:21.480Z,100858.89
2019-01-19T04:48:25.171Z,100859.44
2019-01-19T04:49:28.734Z,100857.28
2019-01-19T04:50:32.432Z,100858.91
2019-01-19T04:51:35.929Z,100858.65
2019-01-19T04:52:39.498Z,100855.91
2019-01-19T04:53:43.107Z,100859.16
2019-01-19T04:54:48.407Z,100858.05
2019-01-19T04:55:52.142Z,100852.57
2019-01-19T04:56:55.652Z,100849.58
2019-01-19T04:57:59.238Z,100854.20
2019-01-19T04:59:02.838Z,100854.20
2019-01-19T05:00:12.233Z,100847.05
2019-01-19T05:01:15.844Z,100854.66
2019-01-19T05:02:19.506Z,100845.08
2019-01-19T05:03:23.000Z,100847.77
2019-01-19T05:04:26.571Z,100842.29
2019-01-19T05:05:30.102Z,100842.55
2019-01-19T05:06:33.621Z,100841.43
2019-01-19T05:07:37.132Z,100843.09
2019-01-19T05:08:40.985Z,100844.71
2019-01-19T05:09:44.526Z,100842.25
2019-01-19T05:10:48.085Z,100848.82
2019-01-19T05:11:51.621Z,100843.05
2019-01-19T05:12:55.122Z,100843.34
2019-01-19T05:13:58.783Z,100847.96
2019-01-19T05:15:02.434Z,100841.63
2019-01-19T05:16:06.107Z,100847.36
2019-01-19T05:17:09.750Z,100844.11
2019-01-19T05:18:13.415Z,100845.48
2019-01-19T05:19:16.944Z,100837.81
2019-01-19T05:20:20.533Z,100841.67
2019-01-19T05:21:24.301Z,100842.73
2019-01-19T05:22:27.813Z,100840.55
2019-01-19T05:23:31.728Z,100842.73
2019-01-19T05:24:35.488Z,100836.70
2019-01-19T05:25:39.012Z,100844.92
2019-01-19T05:26:42.515Z,100831.78
2019-01-19T05:27:46.058Z,100834.22
2019-01-19T05:28:49.541Z,100837.52
2019-01-19T05:29:53.079Z,100834.77
2019-01-19T05:30:56.730Z,100836.66
2019-01-19T05:32:00.295Z,100839.95
2019-01-19T05:33:03.904Z,100830.92
2019-01-19T05:34:07.627Z,100830.36
2019-01-19T05:35:11.331Z,100830.66
2019-01-19T05:36:14.910Z,100830.66
2019-01-19T05:37:18.534Z,100830.11
2019-01-19T05:38:22.121Z,100835.59
2019-01-19T05:39:25.642Z,100826.05
2019-01-19T05:40:29.189Z,100829.86
2019-01-19T05:41:32.775Z,100830.92
2019-01-19T05:42:36.389Z,100828.69
2019-01-19T05:43:40.425Z,100833.05
2019-01-19T05:44:44.882Z,100829.50
2019-01-19T05:45:48.537Z,100832.50
2019-01-19T05:46:52.072Z,100823.98
2019-01-19T05:47:55.645Z,100828.34
2019-01-19T05:48:59.147Z,100828.33
2019-01-19T05:50:02.830Z,100830.76
2019-01-19T05:51:06.406Z,100832.38
2019-01-19T05:52:10.063Z,100824.11
2019-01-19T05:53:13.729Z,100829.55
2019-01-19T05:54:17.305Z,100829.84
2019-01-19T05:55:20.855Z,100827.11
2019-01-19T05:56:24.386Z,100829.55
2019-01-19T05:57:27.920Z,100835.03
2019-01-19T05:58:31.455Z,100829.80
2019-01-19T05:59:35.050Z,100830.81
2019-01-19T06:00:38.636Z,100830.52
2019-01-19T06:01:42.237Z,100832.93
2019-01-19T06:02:45.729Z,100834.50
2019-01-19T06:03:49.288Z,100830.34
2019-01-19T06:04:52.895Z,100831.36
2019-01-19T06:05:56.693Z,100831.59
2019-01-19T06:07:00.284Z,100835.65
2019-01-19T06:08:03.954Z,100836.16
2019-01-19T06:09:08.141Z,100830.92
2019-01-19T06:10:16.808Z,100833.30
2019-01-19T06:11:20.373Z,100833.30
2019-01-19T06:12:23.855Z,100832.98
2019-01-19T06:13:27.413Z,100828.56
2019-01-19T06:14:30.909Z,100828.25
2019-01-19T06:15:34.516Z,100826.88
2019-01-19T06:16:38.024Z,100833.17
2019-01-19T06:17:42.475Z,100828.00
2019-01-19T06:18:46.385Z,100823.08
2019-01-19T06:19:50.067Z,100825.56
2019-01-19T06:20:53.617Z,100829.70
2019-01-19T06:21:57.371Z,100827.57
2019-01-19T06:23:00.915Z,100827.32
2019-01-19T06:24:04.674Z,100826.25
2019-01-19T06:25:11.114Z,100818.03
2019-01-19T06:26:14.611Z,100826.25
2019-01-19T06:27:18.260Z,100829.81
2019-01-19T06:28:21.816Z,100824.88
2019-01-19T06:29:25.357Z,100826.20
2019-01-19T06:30:29.005Z,100828.64
2019-01-19T06:31:32.624Z,100833.25
2019-01-19T06:32:36.197Z,100827.77
2019-01-19T06:33:39.759Z,100828.45
2019-01-19T06:34:43.312Z,100832.77
2019-01-19T06:35:46.920Z,100835.17
2019-01-19T06:36:54.920Z,100831.56
2019-01-19T06:37:55.789Z,100834.00
2019-01-19T06:38:59.343Z,100825.83
2019-01-19T06:40:03.213Z,100835.98
2019-01-19T06:41:06.883Z,100834.08
2019-01-19T06:42:10.385Z,100833.33
2019-01-19T06:43:13.873Z,100832.88
2019-01-19T06:44:17.517Z,100835.16
2019-01-19T06:45:23.241Z,100832.75
2019-01-19T06:46:26.836Z,100838.34
2019-01-19T06:47:30.401Z,100831.59
2019-01-19T06:48:33.893Z,100835.75
2019-01-19T06:49:37.380Z,100831.16
2019-01-19T06:50:40.887Z,100835.02
2019-01-19T06:51:44.399Z,100832.06
2019-01-19T06:52:48.033Z,100835.67
2019-01-19T06:53:51.865Z,100828.61
2019-01-19T06:54:55.367Z,100825.89
2019-01-19T06:55:58.850Z,100836.05
2019-01-19T06:57:02.379Z,100829.50
2019-01-19T06:58:06.008Z,100832.28
2019-01-19T06:59:09.500Z,100829.80
2019-01-19T07:00:16.036Z,100828.98
2019-01-19T07:01:19.634Z,100823.00
2019-01-19T07:02:23.196Z,100822.19
2019-01-19T07:03:26.772Z,100823.56
2019-01-19T07:04:30.343Z,100826.05
2019-01-19T07:05:33.833Z,100824.42
2019-01-19T07:06:37.431Z,100828.27
2019-01-19T07:07:40.986Z,100824.16
2019-01-19T07:08:44.489Z,100824.98
2019-01-19T07:09:47.997Z,100830.45
2019-01-19T07:10:54.237Z,100832.38
2019-01-19T07:11:58.002Z,100828.58
2019-01-19T07:13:01.488Z,100831.31
2019-01-19T07:14:05.340Z,100825.84
2019-01-19T07:15:10.977Z,100830.76
2019-01-19T07:16:14.611Z,100828.33
2019-01-19T07:17:18.139Z,100831.31
2019-01-19T07:18:21.717Z,100833.25
2019-01-19T07:19:25.285Z,100832.14
2019-01-19T07:20:30.963Z,100830.78
2019-01-19T07:21:34.657Z,100833.52
2019-01-19T07:22:38.325Z,100836.26
2019-01-19T07:23:41.973Z,100832.96
2019-01-19T07:24:45.449Z,100834.08
2019-01-19T07:25:49.025Z,100839.55
2019-01-19T07:26:52.582Z,100829.97
2019-01-19T07:27:56.192Z,100836.30
2019-01-19T07:28:59.743Z,100833.56
2019-01-19T07:30:03.410Z,100836.30
2019-01-19T07:31:06.966Z,100840.67
2019-01-19T07:32:10.603Z,100843.41
2019-01-19T07:33:14.125Z,100837.67
2019-01-19T07:34:17.693Z,100842.59
2019-01-19T07:35:21.334Z,100842.59
2019-01-19T07:36:24.895Z,100846.45
2019-01-19T07:37:28.403Z,100843.71
2019-01-19T07:38:32.073Z,100840.67
2019-01-19T07:39:35.564Z,100840.97
2019-01-19T07:40:39.142Z,100841.78
2019-01-19T07:41:42.685Z,100855.23
2019-01-19T07:42:48.012Z,100848.94
2019-01-19T07:43:51.692Z,100839.09
2019-01-19T07:44:55.193Z,100843.45
2019-01-19T07:45:58.669Z,100842.09
2019-01-19T07:47:02.424Z,100848.38
2019-01-19T07:48:06.068Z,100843.45
2019-01-19T07:49:09.743Z,100844.02
2019-01-19T07:50:18.490Z,100850.30
2019-01-19T07:51:21.973Z,100845.38
2019-01-19T07:52:25.478Z,100839.09
2019-01-19T07:53:29.109Z,100850.81
2019-01-19T07:54:32.688Z,100851.05
2019-01-19T07:55:36.334Z,100846.08
2019-01-19T07:56:39.830Z,100850.95
2019-01-19T07:57:43.484Z,100849.59
2019-01-19T07:58:47.148Z,100847.91
2019-01-19T07:59:50.655Z,100845.73
2019-01-19T08:00:55.120Z,100847.70
2019-01-19T08:01:58.745Z,100845.02
2019-01-19T08:03:02.292Z,100854.37
2019-01-19T08:04:05.878Z,100848.22
2019-01-19T08:05:11.111Z,100855.41
2019-01-19T08:06:14.871Z,100851.32
2019-01-19T08:07:18.388Z,100850.59
2019-01-19T08:08:21.975Z,100849.60
2019-01-19T08:09:25.552Z,100849.95
2019-01-19T08:10:29.053Z,100848.16
2019-01-19T08:11:32.603Z,100852.06
2019-01-19T08:12:36.267Z,100848.59
2019-01-19T08:13:39.778Z,100847.58
2019-01-19T08:14:43.282Z,100854.24
2019-01-19T08:15:46.819Z,100854.33
2019-01-19T08:16:50.339Z,100857.11
2019-01-19T08:17:53.912Z,100856.92
2019-01-19T08:18:57.384Z,100855.89
2019-01-19T08:20:00.959Z,100858.67
2019-01-19T08:21:04.621Z,100860.12
2019-01-19T08:22:08.104Z,100854.98
2019-01-19T08:23:11.774Z,100859.64
2019-01-19T08:24:15.269Z,100853.39
2019-01-19T08:25:18.882Z,100853.98
2019-01-19T08:26:22.492Z,100858.34
2019-01-19T08:27:25.973Z,100854.84
2019-01-19T08:28:29.539Z,100851.88
2019-01-19T08:29:33.200Z,100850.13
2019-01-19T08:30:36.692Z,100854.23
2019-01-19T08:31:40.418Z,100852.34
2019-01-19T08:32:43.981Z,100856.45
2019-01-19T08:33:47.631Z,100855.27
2019-01-19T08:34:51.203Z,100854.94
2019-01-19T08:35:54.842Z,100857.19
2019-01-19T08:36:58.423Z,100848.25
2019-01-19T08:38:02.009Z,100850.47
2019-01-19T08:39:07.331Z,100845.62
2019-01-19T08:40:28.011Z,100848.46
2019-01-19T08:41:31.516Z,100852.07
2019-01-19T08:42:35.179Z,100845.02
2019-01-19T08:43:40.707Z,100844.56
2019-01-19T08:44:44.186Z,100842.02
2019-01-19T08:45:47.750Z,100840.29
2019-01-19T08:46:51.356Z,100843.19
2019-01-19T08:47:54.880Z,100843.36
2019-01-19T08:48:58.426Z,100845.34
2019-01-19T08:50:01.919Z,100847.45
2019-01-19T08:51:05.567Z,100843.98
2019-01-19T08:52:09.041Z,100836.55
2019-01-19T08:53:12.715Z,100835.38
2019-01-19T08:54:16.224Z,100839.88
2019-01-19T08:55:19.714Z,100842.04
2019-01-19T08:56:23.286Z,100838.71
2019-01-19T08:57:26.973Z,100840.34
2019-01-19T08:58:30.608Z,100833.42
2019-01-19T08:59:34.104Z,100835.99
2019-01-19T09:00:37.582Z,100842.77
2019-01-19T09:01:41.153Z,100840.07
2019-01-19T09:02:44.813Z,100843.58
2019-01-19T09:03:48.381Z,100838.00
2019-01-19T09:04:51.966Z,100832.82
2019-01-19T09:05:55.532Z,100830.79
2019-01-19T09:06:59.072Z,100836.97
2019-01-19T09:08:02.673Z,100832.53
2019-01-19T09:09:07.862Z,100836.00
2019-01-19T09:10:17.473Z,100839.42
2019-01-19T09:11:21.110Z,100831.30
2019-01-19T09:12:24.603Z,100836.52
2019-01-19T09:13:28.209Z,100836.27
2019-01-19T09:14:31.692Z,100837.57
2019-01-19T09:15:35.179Z,100833.77
2019-01-19T09:16:40.556Z,100834.67
2019-01-19T09:17:44.701Z,100833.62
2019-01-19T09:18:48.290Z,100839.48
2019-01-19T09:19:51.801Z,100839.30
2019-01-19T09:20:55.374Z,100837.16
2019-01-19T09:21:59.040Z,100838.16
2019-01-19T09:23:07.165Z,100839.16
2019-01-19T09:24:11.180Z,100841.38
2019-01-19T09:25:15.531Z,100846.61
2019-01-19T09:26:19.073Z,100842.98
2019-01-19T09:27:23.240Z,100841.18
2019-01-19T09:28:26.792Z,100841.99
2019-01-19T09:29:30.388Z,100844.48
2019-01-19T09:30:34.057Z,100842.05
2019-01-19T09:31:37.576Z,100843.98
2019-01-19T09:32:41.389Z,100841.30
2019-01-19T09:33:45.048Z,100843.86
2019-01-19T09:34:48.633Z,100843.08
2019-01-19T09:35:52.304Z,100847.20
2019-01-19T09:36:55.963Z,100846.19
2019-01-19T09:37:59.592Z,100848.38
2019-01-19T09:39:04.535Z,100845.81
2019-01-19T09:40:11.214Z,100847.19
2019-01-19T09:41:14.962Z,100839.84
2019-01-19T09:42:18.617Z,100837.22
2019-01-19T09:43:22.167Z,100838.66
2019-01-19T09:44:25.816Z,100839.27
2019-01-19T09:45:29.435Z,100838.73
2019-01-19T09:46:32.993Z,100840.22
2019-01-19T09:47:36.649Z,100842.72
2019-01-19T09:48:40.298Z,100830.48
2019-01-19T09:49:43.859Z,100837.09
2019-01-19T09:50:47.555Z,100840.67
2019-01-19T09:51:51.242Z,100834.67
2019-01-19T09:52:54.739Z,100834.70
2019-01-19T09:53:58.246Z,100843.48
2019-01-19T09:55:01.802Z,100836.44
2019-01-19T09:56:05.854Z,100833.75
2019-01-19T09:57:09.478Z,100837.05
2019-01-19T09:58:13.065Z,100827.76
2019-01-19T09:59:16.704Z,100829.97
2019-01-19T10:00:27.914Z,100828.09
2019-01-19T10:01:31.444Z,100822.35
2019-01-19T10:02:34.948Z,100821.84
2019-01-19T10:03:38.506Z,100822.35
2019-01-19T10:04:42.057Z,100824.23
2019-01-19T10:05:45.587Z,100823.39
2019-01-19T10:06:49.253Z,100830.75
2019-01-19T10:07:52.990Z,100820.66
2019-01-19T10:08:56.503Z,100822.02
2019-01-19T10:10:00.011Z,100818.72
2019-01-19T10:11:03.956Z,100816.48
2019-01-19T10:12:07.469Z,100821.16
2019-01-19T10:13:11.039Z,100818.92
2019-01-19T10:14:14.597Z,100817.80
2019-01-19T10:15:22.862Z,100815.30
2019-01-19T10:16:26.498Z,100815.30
2019-01-19T10:17:30.033Z,100812.56
2019-01-19T10:18:33.827Z,100810.89
2019-01-19T10:19:37.323Z,100812.51
2019-01-19T10:20:40.811Z,100812.20
2019-01-19T10:21:44.390Z,100810.02
2019-01-19T10:22:48.050Z,100805.09
2019-01-19T10:23:51.651Z,100797.42
2019-01-19T10:24:55.219Z,100806.47
2019-01-19T10:25:58.742Z,100804.28
2019-01-19T10:27:02.321Z,100802.34
2019-01-19T10:28:05.974Z,100803.47
2019-01-19T10:29:09.906Z,100804.84
2019-01-19T10:30:16.577Z,100803.77
2019-01-19T10:31:20.090Z,100799.10
2019-01-19T10:32:23.582Z,100802.72
2019-01-19T10:33:27.174Z,100803.27
2019-01-19T10:34:30.670Z,100805.52
2019-01-19T10:35:34.302Z,100801.95
2019-01-19T10:36:37.876Z,100803.58
2019-01-19T10:37:41.583Z,100799.47
2019-01-19T10:38:45.123Z,100801.09
2019-01-19T10:39:48.607Z,100790.93
2019-01-19T10:40:52.108Z,100798.34
2019-01-19T10:41:55.693Z,100797.79
2019-01-19T10:42:59.190Z,100802.21
2019-01-19T10:44:02.718Z,100795.19
2019-01-19T10:45:15.138Z,100796.61
2019-01-19T10:46:18.625Z,100790.12
2019-01-19T10:47:22.215Z,100789.36
2019-01-19T10:48:25.729Z,100789.69
2019-01-19T10:49:29.388Z,100786.70
2019-01-19T10:50:32.953Z,100790.87
2019-01-19T10:51:36.592Z,100788.99
2019-01-19T10:52:40.175Z,100780.52
2019-01-19T10:53:43.707Z,100789.86
2019-01-19T10:54:47.232Z,100787.73
2019-01-19T10:55:50.803Z,100791.59
2019-01-19T10:56:54.360Z,100784.20
2019-01-19T10:57:57.937Z,100781.20
2019-01-19T10:59:01.511Z,100785.37
2019-01-19T11:00:08.078Z,100777.70
2019-01-19T11:01:11.731Z,100788.67
2019-01-19T11:02:15.306Z,100778.57
2019-01-19T11:03:18.874Z,100774.20
2019-01-19T11:04:22.448Z,100779.69
2019-01-19T11:05:26.237Z,100772.58
2019-01-19T11:06:29.839Z,100766.34
2019-01-19T11:07:33.650Z,100770.45
2019-01-19T11:08:37.223Z,100771.02
2019-01-19T11:09:40.809Z,100762.53
2019-01-19T11:10:44.315Z,100762.84
2019-01-19T11:11:47.801Z,100755.70
2019-01-19T11:12:51.438Z,100757.08
2019-01-19T11:13:55.014Z,100760.38
2019-01-19T11:14:59.412Z,100759.01
2019-01-19T11:16:07.711Z,100749.72
2019-01-19T11:17:11.336Z,100748.10
2019-01-19T11:18:15.019Z,100751.40
2019-01-19T11:19:18.509Z,100750.33
2019-01-19T11:20:30.539Z,100754.45
2019-01-19T11:21:34.117Z,100744.60
2019-01-19T11:22:37.742Z,100752.27
2019-01-19T11:23:41.244Z,100752.82
2019-01-19T11:24:44.761Z,100746.28
2019-01-19T11:25:48.359Z,100750.13
2019-01-19T11:26:51.952Z,100745.47
2019-01-19T11:27:55.818Z,100748.77
2019-01-19T11:28:59.359Z,100748.20
2019-01-19T11:30:03.175Z,100748.52
2019-01-19T11:31:06.757Z,100743.84
2019-01-19T11:32:10.456Z,100742.22
2019-01-19T11:33:14.141Z,100742.22
2019-01-19T11:34:17.627Z,100739.48
2019-01-19T11:35:21.610Z,100737.86
2019-01-19T11:36:25.188Z,100736.48
2019-01-19T11:37:28.753Z,100735.37
2019-01-19T11:38:32.327Z,100732.37
2019-01-19T11:39:35.974Z,100731.01
2019-01-19T11:40:39.677Z,100729.08
2019-01-19T11:41:43.293Z,100728.83
2019-01-19T11:42:47.234Z,100731.01
2019-01-19T11:43:50.745Z,100725.53
2019-01-19T11:44:54.308Z,100721.16
2019-01-19T11:45:57.892Z,100723.91
2019-01-19T11:47:01.546Z,100722.53
2019-01-19T11:48:05.678Z,100717.31
2019-01-19T11:49:09.242Z,100719.80
2019-01-19T11:50:13.439Z,100715.69
2019-01-19T11:51:17.009Z,100708.84
2019-01-19T11:52:20.699Z,100718.12
2019-01-19T11:53:24.356Z,100710.20
2019-01-19T11:54:28.040Z,100710.77
2019-01-19T11:55:31.762Z,100702.80
2019-01-19T11:56:35.265Z,100707.21
2019-01-19T11:57:38.957Z,100708.58
2019-01-19T11:58:42.452Z,100705.53
2019-01-19T11:59:46.006Z,100708.58
2019-01-19T12:00:51.295Z,100704.75
2019-01-19T12:01:54.789Z,100701.20
2019-01-19T12:02:58.388Z,100705.56
2019-01-19T12:04:01.966Z,100697.64
2019-01-19T12:05:06.614Z,100699.58
2019-01-19T12:06:10.288Z,100697.39
2019-01-19T12:07:13.893Z,100695.52
2019-01-19T12:08:19.765Z,100696.33
2019-01-19T12:09:22.702Z,100696.08
2019-01-19T12:10:28.916Z,100697.20
2019-01-19T12:11:32.562Z,100695.83
2019-01-19T12:12:36.123Z,100691.46
2019-01-19T12:13:39.663Z,100685.48
2019-01-19T12:14:43.277Z,100690.91
2019-01-19T12:15:46.947Z,100687.91
2019-01-19T12:16:50.450Z,100684.11
2019-01-19T12:17:54.318Z,100685.23
2019-01-19T12:18:57.899Z,100686.59
2019-01-19T12:20:01.459Z,100680.87
2019-01-19T12:21:05.149Z,100686.09
2019-01-19T12:22:08.673Z,100678.18
2019-01-19T12:23:12.307Z,100672.42
2019-01-19T12:24:16.053Z,100671.10
2019-01-19T12:25:26.032Z,100675.21
2019-01-19T12:26:29.550Z,100668.36
2019-01-19T12:27:33.226Z,100674.95
2019-01-19T12:28:36.718Z,100667.61
2019-01-19T12:29:40.264Z,100667.61
2019-01-19T12:30:43.816Z,100665.73
2019-01-19T12:31:47.373Z,100667.09
2019-01-19T12:32:51.084Z,100660.00
2019-01-19T12:33:54.767Z,100666.29
2019-01-19T12:34:58.375Z,100665.48
2019-01-19T12:36:01.879Z,100664.97
2019-01-19T12:37:05.431Z,100657.56
2019-01-19T12:38:09.078Z,100654.27
2019-01-19T12:39:12.585Z,100656.25
2019-01-19T12:40:24.411Z,100656.50
2019-01-19T12:41:27.994Z,100661.17
2019-01-19T12:42:31.511Z,100651.02
2019-01-19T12:43:35.027Z,100654.33
2019-01-19T12:44:38.559Z,100647.73
2019-01-19T12:45:44.954Z,100651.59
2019-01-19T12:46:48.545Z,100645.86
2019-01-19T12:47:52.103Z,100645.30
2019-01-19T12:48:55.620Z,100642.56
2019-01-19T12:49:59.156Z,100649.96
2019-01-19T12:51:02.635Z,100642.30
2019-01-19T12:52:06.295Z,100643.67
2019-01-19T12:53:09.956Z,100640.13